createdAt,value
2019-05-02T00:01:51.585Z,23.97
2019-05-02T00:06:38.018Z,23.37
2019-05-02T00:11:24.029Z,24.10
2019-05-02T00:16:14.055Z,24.60
2019-05-02T00:21:00.995Z,24.70
2019-05-02T00:25:47.195Z,25.10
2019-05-02T00:30:34.211Z,24.00
2019-05-02T00:35:16.085Z,24.67
2019-05-02T00:40:00.949Z,25.93
2019-05-02T00:44:46.816Z,25.60
2019-05-02T00:49:35.415Z,25.90
2019-05-02T00:54:19.267Z,26.43
2019-05-02T00:59:07.527Z,26.63
2019-05-02T01:03:53.856Z,26.37
2019-05-02T01:08:38.461Z,26.63
2019-05-02T01:13:23.237Z,28.17
2019-05-02T01:18:08.032Z,27.57
2019-05-02T01:22:53.650Z,28.07
2019-05-02T01:27:43.928Z,27.03
2019-05-02T01:32:44.598Z,26.93
2019-05-02T01:37:50.966Z,27.03
2019-05-02T01:42:39.974Z,27.93
2019-05-02T01:47:21.290Z,27.07
2019-05-02T01:52:06.147Z,27.63
2019-05-02T01:56:50.967Z,27.30
2019-05-02T02:01:35.717Z,27.73
2019-05-02T02:06:20.333Z,27.67
2019-05-02T02:11:04.877Z,24.70
2019-05-02T02:15:49.680Z,24.73
2019-05-02T02:20:45.181Z,23.47
2019-05-02T02:26:00.713Z,25.20
2019-05-02T02:30:45.497Z,24.87
2019-05-02T02:35:30.331Z,25.83
2019-05-02T02:40:15.214Z,26.53
2019-05-02T02:45:12.792Z,24.50
2019-05-02T02:50:02.322Z,26.27
2019-05-02T02:54:44.907Z,26.20
2019-05-02T02:59:29.715Z,25.40
2019-05-02T03:04:14.339Z,27.10
2019-05-02T03:08:59.186Z,28.10
2019-05-02T03:14:07.253Z,24.67
2019-05-02T03:18:49.175Z,25.80
2019-05-02T03:23:33.885Z,25.57
2019-05-02T03:28:20.980Z,27.87
2019-05-02T03:33:11.494Z,29.73
2019-05-02T03:37:53.168Z,29.50
2019-05-02T03:42:44.735Z,29.83
2019-05-02T03:47:25.825Z,30.77
2019-05-02T03:52:10.368Z,30.50
2019-05-02T03:56:55.477Z,31.60
2019-05-02T04:01:41.190Z,31.73
2019-05-02T04:06:26.794Z,31.30
2019-05-02T04:11:37.999Z,29.90
2019-05-02T04:16:15.489Z,29.13
2019-05-02T04:21:00.857Z,30.90
2019-05-02T04:25:46.234Z,29.80
2019-05-02T04:30:34.304Z,28.57
2019-05-02T04:35:19.125Z,28.33
2019-05-02T04:40:08.099Z,29.20
2019-05-02T04:45:11.618Z,27.93
2019-05-02T04:49:41.761Z,28.60
2019-05-02T04:54:31.931Z,26.77
2019-05-02T04:59:17.768Z,27.37
2019-05-02T05:04:03.024Z,25.77
2019-05-02T05:08:48.657Z,27.13
2019-05-02T05:13:33.475Z,27.03
2019-05-02T05:18:18.204Z,27.70
2019-05-02T05:23:02.939Z,25.97
2019-05-02T05:27:47.959Z,26.23
2019-05-02T05:32:32.652Z,26.70
2019-05-02T05:41:58.788Z,30.03
2019-05-02T05:46:46.719Z,29.07
2019-05-02T05:51:29.763Z,29.17
2019-05-02T05:56:14.436Z,32.00
2019-05-02T06:00:59.450Z,32.07
2019-05-02T06:05:44.505Z,33.27
2019-05-02T06:10:29.295Z,33.93
2019-05-02T06:15:14.047Z,37.43
2019-05-02T06:19:59.091Z,37.80
2019-05-02T06:24:46.240Z,36.20
2019-05-02T06:29:30.263Z,36.17
2019-05-02T06:34:14.940Z,37.10
2019-05-02T06:38:59.627Z,35.23
2019-05-02T06:43:46.716Z,39.07
2019-05-02T06:48:30.807Z,40.70
2019-05-02T06:53:15.415Z,38.90
2019-05-02T06:58:02.950Z,38.43
2019-05-02T07:02:46.679Z,38.50
2019-05-02T07:07:36.562Z,35.70
2019-05-02T07:12:17.890Z,35.13
2019-05-02T07:17:16.356Z,32.63
2019-05-02T07:22:04.292Z,31.87
2019-05-02T07:26:47.674Z,32.63
2019-05-02T07:31:32.351Z,32.93
2019-05-02T07:36:17.131Z,38.87
2019-05-02T07:41:02.149Z,39.00
2019-05-02T07:45:46.877Z,36.90
2019-05-02T07:50:31.511Z,39.20
2019-05-02T07:55:16.211Z,37.70
2019-05-02T08:00:02.717Z,36.93
2019-05-02T08:04:47.375Z,37.60
2019-05-02T08:09:32.143Z,35.87
2019-05-02T08:14:16.899Z,38.50
2019-05-02T08:19:05.478Z,34.50
2019-05-02T08:23:47.829Z,33.77
2019-05-02T08:28:53.293Z,37.30
2019-05-02T08:33:38.080Z,32.03
2019-05-02T08:38:25.845Z,31.20
2019-05-02T08:43:10.978Z,29.77
2019-05-02T08:48:00.313Z,30.27
2019-05-02T08:52:44.505Z,28.13
2019-05-02T08:57:30.047Z,28.93
2019-05-02T09:02:15.815Z,28.13
2019-05-02T09:07:00.785Z,27.43
2019-05-02T09:11:57.565Z,29.37
2019-05-02T09:16:32.817Z,28.73
2019-05-02T09:21:17.519Z,28.13
2019-05-02T09:26:02.709Z,27.73
2019-05-02T09:30:47.342Z,26.83
2019-05-02T09:35:32.865Z,27.20
2019-05-02T09:40:17.755Z,28.40
2019-05-02T09:45:03.170Z,27.73
2019-05-02T09:49:52.539Z,28.37
2019-05-02T09:54:37.117Z,28.93
2019-05-02T09:59:33.056Z,27.93
2019-05-02T10:04:18.303Z,27.97
2019-05-02T10:09:02.959Z,28.67
2019-05-02T10:13:47.744Z,29.27
2019-05-02T10:18:32.989Z,27.90
2019-05-02T10:23:19.497Z,25.30
2019-05-02T10:28:04.288Z,28.30
2019-05-02T10:32:55.553Z,28.10
2019-05-02T10:37:38.401Z,27.30
2019-05-02T10:42:22.089Z,27.27
2019-05-02T10:47:06.707Z,28.50
2019-05-02T10:51:53.832Z,26.83
2019-05-02T10:56:38.499Z,27.03
2019-05-02T11:01:24.680Z,26.40
2019-05-02T11:06:09.398Z,26.30
2019-05-02T11:10:54.349Z,26.17
2019-05-02T11:15:57.953Z,25.67
2019-05-02T11:20:42.657Z,25.17
2019-05-02T11:25:27.447Z,24.27
2019-05-02T11:30:12.439Z,24.73
2019-05-02T11:34:58.716Z,22.57
2019-05-02T11:39:49.772Z,22.40
2019-05-02T11:44:30.011Z,23.07
2019-05-02T11:49:14.512Z,20.73
2019-05-02T11:54:04.235Z,19.97
2019-05-02T11:58:48.231Z,19.60
2019-05-02T12:03:37.069Z,20.20
2019-05-02T12:08:22.631Z,18.30
2019-05-02T12:13:11.876Z,18.30
2019-05-02T12:17:54.053Z,18.57
2019-05-02T12:22:39.061Z,18.97
2019-05-02T12:27:23.791Z,18.00
2019-05-02T12:32:08.731Z,17.60
2019-05-02T12:36:53.955Z,17.37
2019-05-02T12:41:38.599Z,17.40
2019-05-02T12:46:23.194Z,17.57
2019-05-02T12:51:07.877Z,17.10
2019-05-02T12:55:52.888Z,17.77
2019-05-02T13:00:37.874Z,17.43
2019-05-02T13:05:22.539Z,17.27
2019-05-02T13:10:08.312Z,16.70
2019-05-02T13:14:53.102Z,16.60
2019-05-02T13:19:41.212Z,16.03
2019-05-02T13:24:30.141Z,14.50
2019-05-02T13:29:17.042Z,15.67
2019-05-02T13:34:15.974Z,15.80
2019-05-02T13:39:01.768Z,16.03
2019-05-02T13:43:48.236Z,17.53
2019-05-02T13:48:33.256Z,15.87
2019-05-02T13:53:18.608Z,15.07
2019-05-02T13:58:03.270Z,15.50
2019-05-02T14:02:48.034Z,16.90
2019-05-02T14:07:34.294Z,17.70
2019-05-02T14:12:46.656Z,15.83
2019-05-02T14:17:32.614Z,15.47
2019-05-02T14:22:17.598Z,16.43
2019-05-02T14:27:02.754Z,16.20
2019-05-02T14:31:47.621Z,12.83
2019-05-02T14:36:32.603Z,13.67
2019-05-02T14:41:29.619Z,15.17
2019-05-02T14:46:12.590Z,15.30
2019-05-02T14:50:57.491Z,14.37
2019-05-02T14:55:45.204Z,10.87
2019-05-02T15:00:39.436Z,10.93
2019-05-02T15:05:28.359Z,7.43
2019-05-02T15:10:06.741Z,9.63
2019-05-02T15:14:57.452Z,9.40
2019-05-02T15:19:38.293Z,8.40
2019-05-02T15:24:27.628Z,9.00
2019-05-02T15:29:19.850Z,9.60
2019-05-02T15:34:14.353Z,14.23
2019-05-02T15:43:49.220Z,17.27
2019-05-02T15:48:35.044Z,16.37
2019-05-02T15:53:25.646Z,16.90
2019-05-02T15:58:23.070Z,17.10
2019-05-02T16:03:04.491Z,16.60
2019-05-02T16:07:49.730Z,14.97
2019-05-02T16:12:36.033Z,14.43
2019-05-02T16:17:25.776Z,15.23
2019-05-02T16:22:17.507Z,14.90
2019-05-02T16:27:05.251Z,15.90
2019-05-02T16:32:07.726Z,15.60
2019-05-02T16:37:16.589Z,13.97
2019-05-02T16:42:02.389Z,14.53
2019-05-02T16:46:59.358Z,13.20
2019-05-02T16:51:44.702Z,13.27
2019-05-02T16:56:31.531Z,12.37
2019-05-02T17:01:24.596Z,12.70
2019-05-02T17:06:03.091Z,12.53
2019-05-02T17:11:01.964Z,14.00
2019-05-02T17:15:47.284Z,13.17
2019-05-02T17:20:32.048Z,13.57
2019-05-02T17:25:18.610Z,13.70
2019-05-02T17:30:03.923Z,14.80
2019-05-02T17:34:49.461Z,15.47
2019-05-02T17:39:37.360Z,16.30
2019-05-02T17:44:22.630Z,15.57
2019-05-02T17:49:07.666Z,15.23
2019-05-02T17:53:52.723Z,16.17
2019-05-02T17:58:39.747Z,17.33
2019-05-02T18:03:31.114Z,17.03
2019-05-02T18:08:14.590Z,16.43
2019-05-02T18:12:59.902Z,15.17
2019-05-02T18:17:44.413Z,15.17
2019-05-02T18:22:29.284Z,14.00
2019-05-02T18:27:14.164Z,14.53
2019-05-02T18:31:59.292Z,14.50
2019-05-02T18:36:44.418Z,14.27
2019-05-02T18:41:29.632Z,14.40
2019-05-02T18:46:14.524Z,15.57
2019-05-02T18:51:01.284Z,14.33
2019-05-02T18:55:46.138Z,15.10
2019-05-02T19:00:37.735Z,14.73
2019-05-02T19:05:21.167Z,14.40
2019-05-02T19:10:07.468Z,16.60
2019-05-02T19:14:52.839Z,16.77
2019-05-02T19:19:38.022Z,16.70
2019-05-02T19:24:22.844Z,18.47
2019-05-02T19:29:24.008Z,17.17
2019-05-02T19:34:08.939Z,17.03
2019-05-02T19:38:57.357Z,17.27
2019-05-02T19:43:45.732Z,15.73
2019-05-02T19:48:27.363Z,16.23
2019-05-02T19:53:18.083Z,14.53
2019-05-02T19:58:04.838Z,13.90
2019-05-02T20:02:45.497Z,12.97
2019-05-02T20:07:32.111Z,11.90
2019-05-02T20:12:16.704Z,10.63
2019-05-02T20:17:02.301Z,12.10
2019-05-02T20:21:57.251Z,11.00
2019-05-02T20:26:46.768Z,10.87
2019-05-02T20:31:32.174Z,10.33
2019-05-02T20:36:16.124Z,9.77
2019-05-02T20:41:02.752Z,10.40
2019-05-02T20:45:47.299Z,10.13
2019-05-02T20:50:31.989Z,10.13
2019-05-02T20:55:16.986Z,10.13
2019-05-02T21:00:01.861Z,9.80
2019-05-02T21:04:46.813Z,12.47
2019-05-02T21:09:59.344Z,9.80
2019-05-02T21:14:44.293Z,9.87
2019-05-02T21:19:29.056Z,8.67
2019-05-02T21:24:13.870Z,8.77
2019-05-02T21:28:58.955Z,9.30
2019-05-02T21:33:43.669Z,10.10
2019-05-02T21:38:28.402Z,10.07
2019-05-02T21:43:13.019Z,8.70
2019-05-02T21:47:57.730Z,8.33
2019-05-02T21:53:01.948Z,9.13
2019-05-02T21:57:47.081Z,10.47
2019-05-02T22:02:31.861Z,10.23
2019-05-02T22:07:16.589Z,11.20
2019-05-02T22:12:01.694Z,11.17
2019-05-02T22:16:46.560Z,10.93
2019-05-02T22:21:34.734Z,11.30
2019-05-02T22:26:17.556Z,10.70
2019-05-02T22:31:03.284Z,11.93
2019-05-02T22:35:48.123Z,13.00
2019-05-02T22:40:32.958Z,14.23
2019-05-02T22:45:17.840Z,13.13
2019-05-02T22:50:02.493Z,15.47
2019-05-02T22:54:47.353Z,14.80
2019-05-02T22:59:32.114Z,16.07
2019-05-02T23:04:16.901Z,16.83
2019-05-02T23:09:02.001Z,16.90
2019-05-02T23:13:46.617Z,17.63
2019-05-02T23:18:31.921Z,18.00
2019-05-02T23:23:16.657Z,18.67
2019-05-02T23:28:07.191Z,19.13
2019-05-02T23:32:51.965Z,19.30
2019-05-02T23:37:36.641Z,21.00
2019-05-02T23:42:21.844Z,21.10
2019-05-02T23:47:06.623Z,19.43
2019-05-02T23:51:51.391Z,20.20
2019-05-02T23:56:36.157Z,19.00
